メインページ
METAR-TAF:

METAR-TAF

空港 :

東京国際空港

東京 / 羽田国際空港, 日本

緯度: 35-33N, 経度: 139-47E, 海抜: 5m

現時点の気象観測

当レポートは34分前の02:30(UTC)に作成
の風 23kt、最大33ktの突風を伴う
気温 9°C
湿度 43%
気圧 1025 hPa
視程10km以上
高度1500ftの雲はほとんどない

METAR: RJTT 150230Z 35023G33KT 9999 FEW015 09/M03 Q1025 NOSIG RMK 1CU015 A3027

時間: 12:04 (03:04 UTC)

予報

当レポートは3時間59分前の23:05(UTC)に作成
予報は15日の 00時(UTC)から 16日の 06時(UTC)まで有効
の風 14kt
視程10km以上
高度3000ftの雲はほとんどない
16日の 00時(UTC)から 16日の 03時(UTC)まで徐々に
南/南東の風 10kt

TAF: RJTT 142305Z 1500/1606 36014KT 9999 FEW030 BECMG 1600/1603 16010KT

4,000以上の空港の気象観測と天気予報(METAR報とTAF報)

利用可能な観測所は地図上に黄色い丸と赤い丸で示す。

丸の上にカーソルを重ねると観測所名を参照できる。

次にクリックすると気象観測と天気予報を参照できる。

マップの切り替え:黒色「×」印の緑ボタンをクリックして拡大、「-」印の緑ボタンをクリックして縮小、緑色の三角印をクリックして隣りの地図に切り替え


METAR-TAF: